ADDS TAF Board (Experimental) INFO Settings
IDs: Format: Expanded Condensed

KCVG - Cincinnati Intl, KY, US

Issued at 0540 UTC 02 May 2016
Updated at: 0556 UTC 02 May 2016
Time0552Z 02/06Z 02/07Z 02/08Z 02/09Z 02/10Z 02/11Z 02/12Z 02/13Z 02/14Z 02/15Z 02/16Z 02/17Z 02/18Z
Type OBS PRVL
  [TEMP]  
PRVL PRVL PRVL PRVL PRVL PRVL PRVL PRVL PRVL PRVL PRVL PRVL
VIS 10 >6
  [4]  
>6 >6 >6 >6 >6 >6 >6 >6 >6 >6 >6 >6
CIG 30 50
  [30]  
50 100 100 100 100 100 100 100 25 25 25 25
Cover OVC OVC
  [OVC]  
OVC BKN BKN BKN BKN BKN BKN BKN BKN BKN BKN BKN
FltCat MVFR VFR
  [MVFR]  
VFR VFR VFR VFR VFR VFR VFR VFR MVFR MVFR MVFR MVFR
WX -- VCTS
  [TSRA BR]  
VCTS -- -- -- -- -- -- -- -- -- -- --
WDir 260 170
[170]
170 280 280 280 280 280 280 280 260 260 260 260
WSpd 8 6
  [6]  
6 8 8 8 8 8 8 8 8 8 8 8
WGst 16 --
  [--]  
-- -- -- -- -- -- -- -- -- -- -- --
R09/27
XWnd -1 -6 -6 1 1 1 1 1 1 1 -1 -1 -1 -1
XGst -3 0 -- -- -- -- -- -- -- -- -- -- -- --
HWnd -8 1 1 -8 -8 -8 -8 -8 -8 -8 -8 -8 -8 -8
HGst -16 0 -- -- -- -- -- -- -- -- -- -- -- --
R18/36
XWnd -8 1 1 -8 -8 -8 -8 -8 -8 -8 -8 -8 -8 -8
XGst -16 0 -- -- -- -- -- -- -- -- -- -- -- --
HWnd 1 6 6 -1 -1 -1 -1 -1 -1 -1 1 1 1 1
HGst 3 0 -- -- -- -- -- -- -- -- -- -- -- --

NOTE: TEMPO conditions in [brackets]. Keep in mind TEMPO conditions might be better (lower impact) than prevailing conditions.

Raw TAF
KCVG 020540Z 0206/0312 17006KT P6SM VCTS SCT030CB OVC050
  TEMPO 0206/0207 4SM TSRA BR OVC030CB
  FM020730 28008KT P6SM SCT025 BKN100
  FM021500 26008KT P6SM BKN025
  FM022100 28008KT P6SM VCSH OVC040
  FM030100 36006KT 5SM BR OVC020
  TEMPO 0308/0312 2SM BR SCT020 OVC080


Raw METAR
KCVG 020552Z 26008G16KT 10SM SCT008 BKN030 OVC120 17/16 A2989 RMK AO2 SLP114 60004 T01720161 10189 20156 53005
KCVG 020546Z 31012G16KT 10SM FEW008 BKN035 BKN110 BKN150 17/16 A2989 RMK AO2 PRESRR
KCVG 020452Z 19005KT 10SM FEW026 SCT033 BKN050 BKN150 17/16 A2987 RMK AO2 TSB0359E43RAB08E28 SLP107 OCNL LTGIC DSNT NE SW TS MOV NE CB DSNT NE SW P0004 T01670156 402670156
KCVG 020443Z 19007KT 10SM FEW026 BKN033 BKN055 OVC150 17/16 A2987 RMK AO2 TSB0359E43RAB08E28 OCNL LTGIC DSNT NE-E NW TS MOV NE CB DSNT NE-E NW P0004
KCVG 020359Z 20004KT 10SM TS SCT039CB BKN048 OVC110 16/15 A2988 RMK AO2 TSB59 OCNL LTGICCC SE TS SE-S MOV NE
KCVG 020352Z 19006KT 10SM SCT042 BKN055 OVC180 16/15 A2988 RMK AO2 SLP110 T01610150
KCVG 020252Z 18006KT 10SM FEW200 SCT250 16/14 A2988 RMK AO2 SLP111 60000 T01560144 58003

METAR Board
Radar Display
Forecast Discussion

TAF Board Legend

Potential Impact
Threat None Slight Moderate High
Visibility (sm) ≥5.1 5.1>X≥3 3>X≥1 <1
Ceiling (100 ft) ≥30.1 30.1>X≥10 10>X≥5 <5
Wind Speed (kt) <10 10≤X<20 20≤X<30 ≥30
Wind Gust (kt) <15 15≤X<25 25≤X<35 ≥35
Weather No Wx Reported VCTS,-TS,-FZRA,SN TS,FZRA +TS,+FZRA,+SN